createdAt,value
2022-11-28T00:00:54.418Z,6.30
2022-11-28T00:06:56.033Z,6.30
2022-11-28T00:12:57.686Z,6.40
2022-11-28T00:19:00.303Z,6.40
2022-11-28T00:25:01.913Z,6.40
2022-11-28T00:31:03.963Z,6.40
2022-11-28T00:37:05.603Z,6.30
2022-11-28T00:43:07.283Z,6.30
2022-11-28T00:49:08.986Z,6.40
2022-11-28T00:55:10.776Z,6.40
2022-11-28T01:01:12.577Z,6.50
2022-11-28T01:07:14.331Z,6.50
2022-11-28T01:13:15.992Z,6.50
2022-11-28T01:19:17.930Z,6.40
2022-11-28T01:25:19.567Z,6.50
2022-11-28T01:31:23.076Z,6.30
2022-11-28T01:37:24.832Z,6.30
2022-11-28T01:43:26.521Z,6.20
2022-11-28T01:49:30.179Z,6.20
2022-11-28T01:55:33.295Z,6.10
2022-11-28T02:01:34.977Z,6.20
2022-11-28T02:07:37.264Z,6.10
2022-11-28T02:13:38.951Z,6.20
2022-11-28T02:19:56.330Z,6.20
2022-11-28T02:26:04.259Z,6.20
2022-11-28T02:32:10.750Z,6.30
2022-11-28T02:38:32.647Z,6.20
2022-11-28T02:44:38.146Z,6.20
2022-11-28T02:51:05.776Z,6.10
2022-11-28T02:57:08.175Z,6.10
2022-11-28T03:03:28.642Z,6.00
2022-11-28T03:09:30.372Z,6.00
2022-11-28T03:15:40.570Z,6.00
2022-11-28T03:21:45.013Z,6.00
2022-11-28T03:28:09.951Z,6.10
2022-11-28T03:34:14.132Z,6.00
2022-11-28T03:40:20.396Z,6.00
2022-11-28T03:46:23.353Z,6.00
2022-11-28T03:52:29.940Z,6.00
2022-11-28T03:58:46.769Z,5.90
2022-11-28T04:04:54.242Z,5.90
2022-11-28T04:10:58.163Z,5.90
2022-11-28T04:17:05.865Z,5.90
2022-11-28T04:23:10.476Z,6.00
2022-11-28T04:29:14.818Z,6.00
2022-11-28T04:35:18.711Z,6.00
2022-11-28T04:41:22.335Z,6.00
2022-11-28T04:47:24.666Z,6.00
2022-11-28T04:53:37.002Z,5.90
2022-11-28T04:59:39.749Z,6.10
2022-11-28T05:05:46.639Z,6.00
2022-11-28T05:11:48.263Z,6.00
2022-11-28T05:17:49.912Z,6.00
2022-11-28T05:23:51.533Z,6.10
2022-11-28T05:29:53.869Z,6.10
2022-11-28T05:35:55.758Z,6.10
2022-11-28T05:41:57.856Z,6.10
2022-11-28T05:47:59.443Z,6.10
2022-11-28T05:54:01.147Z,6.10
2022-11-28T06:00:03.527Z,6.10
2022-11-28T06:06:08.031Z,6.10
2022-11-28T06:12:09.664Z,6.00
2022-11-28T06:18:11.319Z,6.00
2022-11-28T06:24:13.030Z,6.10
2022-11-28T06:30:14.756Z,6.10
2022-11-28T06:36:17.524Z,6.10
2022-11-28T06:42:20.018Z,6.00
2022-11-28T06:48:21.691Z,5.90
2022-11-28T06:54:23.406Z,5.80
2022-11-28T07:00:25.232Z,5.80
2022-11-28T07:06:27.221Z,5.70
2022-11-28T07:12:28.980Z,5.50
2022-11-28T07:18:30.875Z,5.40
2022-11-28T07:24:32.769Z,5.40
2022-11-28T07:30:34.378Z,5.20
2022-11-28T07:36:36.152Z,5.20
2022-11-28T07:42:37.873Z,5.20
2022-11-28T07:48:39.703Z,5.20
2022-11-28T07:54:41.440Z,5.20
2022-11-28T08:00:43.097Z,5.30
2022-11-28T08:06:44.893Z,5.30
2022-11-28T08:12:46.483Z,5.30
2022-11-28T08:18:49.194Z,5.30
2022-11-28T08:24:50.814Z,5.40
2022-11-28T08:30:52.488Z,5.40
2022-11-28T08:36:54.110Z,5.50
2022-11-28T08:42:55.857Z,5.30
2022-11-28T08:48:57.501Z,5.30
2022-11-28T08:54:59.095Z,5.30
2022-11-28T09:01:00.759Z,5.30
2022-11-28T09:07:17.695Z,5.20
2022-11-28T09:13:19.530Z,5.30
2022-11-28T09:19:21.145Z,5.50
2022-11-28T09:25:22.981Z,5.40
2022-11-28T09:31:24.813Z,5.50
2022-11-28T09:37:27.713Z,5.50
2022-11-28T09:43:35.267Z,5.60
2022-11-28T09:49:42.119Z,5.60
2022-11-28T09:55:52.394Z,5.60
2022-11-28T10:02:09.294Z,5.70
2022-11-28T10:08:18.732Z,5.80
2022-11-28T10:14:20.297Z,5.80
2022-11-28T10:20:31.050Z,5.90
2022-11-28T10:26:41.291Z,5.90
2022-11-28T10:32:45.257Z,5.90
2022-11-28T10:38:46.886Z,5.80
2022-11-28T10:44:48.660Z,5.70
2022-11-28T10:50:57.598Z,5.70
2022-11-28T10:57:02.264Z,5.60
2022-11-28T11:03:04.290Z,5.70
2022-11-28T11:09:06.001Z,5.70
2022-11-28T11:15:17.003Z,5.70
2022-11-28T11:21:22.783Z,5.80
2022-11-28T11:27:24.538Z,5.90
2022-11-28T11:33:30.286Z,5.90
2022-11-28T11:39:32.198Z,5.90
2022-11-28T11:45:34.698Z,6.10
2022-11-28T11:51:39.422Z,6.10
2022-11-28T11:57:51.509Z,6.20
2022-11-28T12:03:54.953Z,6.30
2022-11-28T12:10:00.509Z,6.30
2022-11-28T12:16:21.676Z,6.30
2022-11-28T12:22:23.470Z,6.30
2022-11-28T12:28:42.417Z,6.30
2022-11-28T12:34:44.011Z,6.30
2022-11-28T12:40:48.432Z,6.40
2022-11-28T12:46:50.144Z,6.40
2022-11-28T12:52:51.812Z,6.50
2022-11-28T12:59:15.803Z,6.50
2022-11-28T13:05:24.145Z,6.50
2022-11-28T13:11:34.951Z,6.50
2022-11-28T13:17:36.633Z,6.50
2022-11-28T13:23:38.364Z,6.50
2022-11-28T13:29:58.146Z,6.50
2022-11-28T13:36:00.282Z,6.50
2022-11-28T13:42:44.381Z,6.40
2022-11-28T13:54:57.434Z,6.40
2022-11-28T14:01:13.694Z,6.30
2022-11-28T14:07:25.683Z,6.30
2022-11-28T14:13:33.159Z,6.30
2022-11-28T14:19:56.184Z,6.30
2022-11-28T14:25:58.555Z,6.30
2022-11-28T14:32:28.355Z,6.30
2022-11-28T14:38:31.150Z,6.30
2022-11-28T14:44:51.624Z,6.30
2022-11-28T14:50:59.389Z,6.30
2022-11-28T14:57:10.318Z,6.30
2022-11-28T15:03:30.692Z,6.30
2022-11-28T15:09:42.821Z,6.30
2022-11-28T15:15:52.714Z,6.30
2022-11-28T15:21:55.112Z,6.30
2022-11-28T15:27:56.914Z,6.30
2022-11-28T15:33:59.423Z,6.20
2022-11-28T15:40:04.293Z,6.00
2022-11-28T15:46:07.987Z,6.10
2022-11-28T15:52:15.751Z,6.00
2022-11-28T15:58:19.255Z,6.00
2022-11-28T16:04:21.270Z,6.00
2022-11-28T16:10:28.810Z,5.90
2022-11-28T16:16:33.029Z,5.90
2022-11-28T16:22:37.588Z,5.90
2022-11-28T16:28:40.693Z,5.80
2022-11-28T16:34:49.616Z,5.80
2022-11-28T16:40:51.997Z,5.90
2022-11-28T16:46:54.861Z,5.80
2022-11-28T16:52:57.803Z,5.80
2022-11-28T16:59:11.441Z,5.80
2022-11-28T17:05:13.147Z,5.70
2022-11-28T17:11:15.929Z,5.80
2022-11-28T17:17:18.285Z,5.80
2022-11-28T17:23:24.335Z,5.70
2022-11-28T17:29:26.105Z,5.70
2022-11-28T17:35:30.899Z,5.70
2022-11-28T17:41:33.164Z,5.70
2022-11-28T17:47:34.886Z,5.70
2022-11-28T17:53:36.700Z,5.70
2022-11-28T17:59:38.330Z,5.70
2022-11-28T18:05:40.958Z,5.70
2022-11-28T18:11:43.305Z,5.80
2022-11-28T18:17:44.960Z,5.70
2022-11-28T18:23:49.357Z,5.70
2022-11-28T18:29:51.311Z,5.80
2022-11-28T18:35:52.954Z,5.80
2022-11-28T18:41:54.681Z,5.80
2022-11-28T18:48:00.159Z,5.80
2022-11-28T18:54:04.041Z,5.80
2022-11-28T19:00:06.231Z,5.80
2022-11-28T19:06:09.454Z,5.80
2022-11-28T19:12:11.549Z,5.80
2022-11-28T19:18:13.807Z,5.80
2022-11-28T19:24:15.514Z,5.80
2022-11-28T19:30:17.446Z,5.80
2022-11-28T19:36:19.242Z,5.80
2022-11-28T19:42:21.020Z,5.80
2022-11-28T19:48:23.239Z,5.70
2022-11-28T19:54:24.979Z,5.70
2022-11-28T20:00:26.792Z,5.70
2022-11-28T20:06:29.936Z,5.70
2022-11-28T20:12:31.680Z,5.70
2022-11-28T20:18:33.370Z,5.60
2022-11-28T20:24:35.123Z,5.70
2022-11-28T20:30:36.861Z,5.70
2022-11-28T20:36:38.561Z,5.70
2022-11-28T20:42:40.392Z,5.70
2022-11-28T20:48:42.439Z,5.80
2022-11-28T20:54:44.109Z,5.70
2022-11-28T21:00:46.143Z,5.70
2022-11-28T21:06:49.436Z,5.80
2022-11-28T21:12:51.165Z,5.80
2022-11-28T21:18:53.099Z,5.80
2022-11-28T21:24:54.894Z,5.80
2022-11-28T21:30:56.557Z,5.80
2022-11-28T21:36:58.373Z,5.80
2022-11-28T21:43:00.128Z,5.80
2022-11-28T21:49:02.171Z,5.80
2022-11-28T21:55:04.075Z,5.80
2022-11-28T22:01:07.299Z,5.80
2022-11-28T22:07:09.115Z,5.80
2022-11-28T22:13:10.888Z,5.80
2022-11-28T22:19:12.654Z,5.80
2022-11-28T22:25:14.577Z,5.80
2022-11-28T22:31:17.853Z,5.90
2022-11-28T22:37:19.554Z,5.80
2022-11-28T22:43:21.413Z,5.80
2022-11-28T22:49:23.191Z,5.80
2022-11-28T22:55:24.985Z,5.80
2022-11-28T23:01:28.580Z,5.80
2022-11-28T23:07:30.747Z,5.80
2022-11-28T23:13:33.024Z,5.80
2022-11-28T23:19:35.015Z,5.80
2022-11-28T23:25:36.767Z,5.80
2022-11-28T23:31:39.442Z,5.80
2022-11-28T23:37:41.210Z,5.80
2022-11-28T23:43:43.050Z,5.90
2022-11-28T23:49:44.775Z,5.80
2022-11-28T23:55:46.507Z,5.80
